Latest  Newer  Older  Last 2 hours slideshow  Last 24 hours slideshow  Refresh every 5 minutes 
Current image  Latest image  Rain/snow radar  Cloud coverage sat images 

All time is UTC (add 2 hours to UTC in wintertime, 3 hours to UTC in DST for Latvia local time)

2020/02/22 22:20 EVRA 222220Z 23010KT 200V260 9999 FEW025 05/01 Q0991 R18/290195 NOSIG
2020/02/22 22:20 EVLA 222220Z AUTO 26024G34KT 9999 FEW027/// BKN075/// BKN110/// 05/02 Q0993
2020/02/22 22:20 EVVA 222220Z AUTO 25022G34KT CAVOK 05/04 Q0989
2020/02/22 22:20 EYKA 222220Z AUTO 27019G30KT 240V300 2600 +UP SCT008/// BKN014/// OVC020/// 04/02 Q1000
2020/02/22 22:20 EYPA 222220Z AUTO 27010G22KT 240V310 9999 FEW034/// SCT069/// BKN150/// 04/02 Q0997
2020/02/22 22:20 EYSA 222220Z 27013KT 9999 -SHRASN OVC007 FEW012CB 02/01 Q0996 R14L/29//95 R14R/29//95 GRN NOSIG
2020/02/22 22:20 EYVI 222220Z 23012KT 9999 BKN034CB BKN110 05/02 Q0999 R19/2///95 TEMPO 0800 +SHRASN
2020/02/22 08:50 EEKA 220850Z 20016KT 160V240 9000 RA BKN009 OVC016 05/04 Q0995
2020/02/22 21:50 EEKE 222150Z AUTO 26016G29KT 230V290 9999NDV FEW028 05/01 Q0985
2020/02/22 13:50 EEPU 221350Z 19020G36KT 160V230 3600 -RA BR BKN008 OVC014 04/03 Q0991
2020/02/22 22:20 EETN 222220Z 24019KT 9999 SCT023 SCT047 04/02 Q0979 R08/290295
2020/02/22 21:50 EETU 222150Z AUTO 23018G30KT 9999 DZ FEW016/// BKN023/// BKN032/// 04/02 Q0983 RESHUP RERA
   RIGA AIRPORT     EVRA               56 55N  023 58E   10   X     T          6 LV
   LIEPAJA INTL     EVLA        26406  56 31N  021 06E    4   X                8 LV
   VENTPILS         EVVA               57 21N  021 33E    6   X                8 LV
   KAUNAS           EYKA               54 54N  023 55E   77   X     T          6 LT
   PALANGA INTL     EYPA               55 55N  021 03E   10   X                6 LT
   SIAULIAI INTL    EYSA               55 54N  023 24E  135   X     T          6 LT
   VILNIUS INTL     EYVI        26730  54 38N  025 17E  197   X     T          6 LT
   KARDLA           EEKA        26116  58 59N  022 50E    4   X                8 EE
   KURESSAARE       EEKE               58 14N  022 31E    4   X                8 EE
   PARNU            EEPU               58 25N  024 28E   14   X                8 EE
   TALLINN          EETN        26038  59 24N  024 49E   40   X     T          8 EE
   TARTU            EETU               58 19N  026 41E   67   X                8 EE